sensor_id;sensor_type;location;lat;lon;timestamp;P1;durP1;ratioP1;P2;durP2;ratioP2
60869;SDS011;46710;43.680;4.132;2022-09-03T00:07:13;4.47;;;3.03;;
60869;SDS011;46710;43.680;4.132;2022-09-03T00:09:42;5.53;;;3.60;;
60869;SDS011;46710;43.680;4.132;2022-09-03T00:12:55;5.60;;;3.80;;
60869;SDS011;46710;43.680;4.132;2022-09-03T00:22:41;4.75;;;3.95;;
60869;SDS011;46710;43.680;4.132;2022-09-03T00:25:11;5.35;;;4.28;;
60869;SDS011;46710;43.680;4.132;2022-09-03T00:27:39;4.82;;;4.10;;
60869;SDS011;46710;43.680;4.132;2022-09-03T00:30:11;6.57;;;4.30;;
60869;SDS011;46710;43.680;4.132;2022-09-03T00:32:44;7.40;;;4.45;;
60869;SDS011;46710;43.680;4.132;2022-09-03T00:35:16;8.05;;;4.60;;
60869;SDS011;46710;43.680;4.132;2022-09-03T00:37:43;5.53;;;4.32;;
60869;SDS011;46710;43.680;4.132;2022-09-03T00:40:12;10.20;;;5.70;;
60869;SDS011;46710;43.680;4.132;2022-09-03T00:45:24;5.95;;;5.03;;
60869;SDS011;46710;43.680;4.132;2022-09-03T00:58:17;6.85;;;5.65;;
60869;SDS011;46710;43.680;4.132;2022-09-03T01:00:46;9.52;;;5.60;;
60869;SDS011;46710;43.680;4.132;2022-09-03T01:13:35;8.63;;;5.80;;
60869;SDS011;46710;43.680;4.132;2022-09-03T01:18:52;7.00;;;5.53;;
60869;SDS011;46710;43.680;4.132;2022-09-03T01:24:03;7.18;;;5.68;;
60869;SDS011;46710;43.680;4.132;2022-09-03T01:29:24;7.87;;;5.43;;
60869;SDS011;46710;43.680;4.132;2022-09-03T01:37:22;7.65;;;5.12;;
60869;SDS011;46710;43.680;4.132;2022-09-03T01:47:48;9.20;;;5.07;;
60869;SDS011;46710;43.680;4.132;2022-09-03T01:50:24;9.00;;;4.53;;
60869;SDS011;46710;43.680;4.132;2022-09-03T01:58:34;6.43;;;4.37;;
60869;SDS011;46710;43.680;4.132;2022-09-03T02:01:04;5.15;;;4.40;;
60869;SDS011;46710;43.680;4.132;2022-09-03T02:03:41;6.28;;;4.20;;
60869;SDS011;46710;43.680;4.132;2022-09-03T02:06:09;5.37;;;4.18;;
60869;SDS011;46710;43.680;4.132;2022-09-03T02:08:36;9.55;;;4.28;;
60869;SDS011;46710;43.680;4.132;2022-09-03T02:11:02;7.97;;;4.03;;
60869;SDS011;46710;43.680;4.132;2022-09-03T02:13:31;6.32;;;3.97;;
60869;SDS011;46710;43.680;4.132;2022-09-03T02:15:59;5.20;;;3.78;;
60869;SDS011;46710;43.680;4.132;2022-09-03T02:18:28;6.37;;;3.80;;
60869;SDS011;46710;43.680;4.132;2022-09-03T02:20:55;6.45;;;3.65;;
60869;SDS011;46710;43.680;4.132;2022-09-03T02:23:22;4.82;;;3.37;;
60869;SDS011;46710;43.680;4.132;2022-09-03T02:25:49;7.03;;;3.60;;
60869;SDS011;46710;43.680;4.132;2022-09-03T02:28:16;5.82;;;4.00;;
60869;SDS011;46710;43.680;4.132;2022-09-03T02:30:42;4.65;;;3.60;;
60869;SDS011;46710;43.680;4.132;2022-09-03T02:33:08;8.13;;;3.78;;
60869;SDS011;46710;43.680;4.132;2022-09-03T02:35:35;6.87;;;4.03;;
60869;SDS011;46710;43.680;4.132;2022-09-03T02:38:20;6.12;;;3.50;;
60869;SDS011;46710;43.680;4.132;2022-09-03T02:40:47;4.72;;;3.45;;
60869;SDS011;46710;43.680;4.132;2022-09-03T02:43:26;7.80;;;3.30;;
60869;SDS011;46710;43.680;4.132;2022-09-03T02:48:22;5.68;;;3.42;;
60869;SDS011;46710;43.680;4.132;2022-09-03T02:50:49;4.65;;;3.50;;
60869;SDS011;46710;43.680;4.132;2022-09-03T02:53:15;5.22;;;3.40;;
60869;SDS011;46710;43.680;4.132;2022-09-03T02:55:42;5.65;;;3.47;;
60869;SDS011;46710;43.680;4.132;2022-09-03T02:58:08;6.65;;;3.35;;
60869;SDS011;46710;43.680;4.132;2022-09-03T03:00:34;5.97;;;3.58;;
60869;SDS011;46710;43.680;4.132;2022-09-03T03:03:04;6.05;;;3.37;;
60869;SDS011;46710;43.680;4.132;2022-09-03T03:05:45;3.97;;;3.47;;
60869;SDS011;46710;43.680;4.132;2022-09-03T03:08:11;3.78;;;3.37;;
60869;SDS011;46710;43.680;4.132;2022-09-03T03:10:39;7.32;;;3.55;;
60869;SDS011;46710;43.680;4.132;2022-09-03T03:13:07;4.15;;;3.40;;
60869;SDS011;46710;43.680;4.132;2022-09-03T03:15:33;6.82;;;3.97;;
60869;SDS011;46710;43.680;4.132;2022-09-03T03:17:59;6.25;;;3.72;;
60869;SDS011;46710;43.680;4.132;2022-09-03T03:20:25;5.47;;;2.95;;
60869;SDS011;46710;43.680;4.132;2022-09-03T03:22:51;4.57;;;3.03;;
60869;SDS011;46710;43.680;4.132;2022-09-03T03:25:17;6.32;;;3.40;;
60869;SDS011;46710;43.680;4.132;2022-09-03T03:27:43;5.87;;;3.42;;
60869;SDS011;46710;43.680;4.132;2022-09-03T03:30:09;4.87;;;3.17;;
60869;SDS011;46710;43.680;4.132;2022-09-03T03:32:36;5.40;;;3.58;;
60869;SDS011;46710;43.680;4.132;2022-09-03T03:35:03;4.87;;;3.35;;
60869;SDS011;46710;43.680;4.132;2022-09-03T03:37:29;5.87;;;3.33;;
60869;SDS011;46710;43.680;4.132;2022-09-03T03:39:55;4.35;;;3.20;;
60869;SDS011;46710;43.680;4.132;2022-09-03T03:42:21;3.70;;;3.22;;
60869;SDS011;46710;43.680;4.132;2022-09-03T03:44:47;7.35;;;3.45;;
60869;SDS011;46710;43.680;4.132;2022-09-03T03:47:13;5.03;;;3.45;;
60869;SDS011;46710;43.680;4.132;2022-09-03T03:49:41;7.30;;;3.12;;
60869;SDS011;46710;43.680;4.132;2022-09-03T03:52:07;3.53;;;3.20;;
60869;SDS011;46710;43.680;4.132;2022-09-03T03:54:33;6.12;;;3.97;;
60869;SDS011;46710;43.680;4.132;2022-09-03T03:56:59;5.43;;;3.55;;
60869;SDS011;46710;43.680;4.132;2022-09-03T03:59:25;6.50;;;3.80;;
60869;SDS011;46710;43.680;4.132;2022-09-03T04:01:54;6.60;;;3.95;;
60869;SDS011;46710;43.680;4.132;2022-09-03T04:04:20;5.72;;;3.25;;
60869;SDS011;46710;43.680;4.132;2022-09-03T04:06:46;5.25;;;3.78;;
60869;SDS011;46710;43.680;4.132;2022-09-03T04:09:13;4.93;;;4.10;;
60869;SDS011;46710;43.680;4.132;2022-09-03T04:11:39;4.62;;;3.72;;
60869;SDS011;46710;43.680;4.132;2022-09-03T04:14:05;6.12;;;3.92;;
60869;SDS011;46710;43.680;4.132;2022-09-03T04:16:31;4.10;;;3.70;;
60869;SDS011;46710;43.680;4.132;2022-09-03T04:18:57;5.95;;;3.65;;
60869;SDS011;46710;43.680;4.132;2022-09-03T04:21:27;7.97;;;4.20;;
60869;SDS011;46710;43.680;4.132;2022-09-03T04:23:54;6.28;;;3.67;;
60869;SDS011;46710;43.680;4.132;2022-09-03T04:26:22;6.90;;;3.72;;
60869;SDS011;46710;43.680;4.132;2022-09-03T04:28:48;4.60;;;3.45;;
60869;SDS011;46710;43.680;4.132;2022-09-03T04:31:15;5.65;;;4.00;;
60869;SDS011;46710;43.680;4.132;2022-09-03T04:33:41;6.95;;;4.00;;
60869;SDS011;46710;43.680;4.132;2022-09-03T04:36:08;8.23;;;4.20;;
60869;SDS011;46710;43.680;4.132;2022-09-03T04:38:36;7.57;;;3.87;;
60869;SDS011;46710;43.680;4.132;2022-09-03T04:41:03;6.78;;;3.92;;
60869;SDS011;46710;43.680;4.132;2022-09-03T04:43:29;6.85;;;3.90;;
60869;SDS011;46710;43.680;4.132;2022-09-03T04:45:56;4.93;;;4.28;;
60869;SDS011;46710;43.680;4.132;2022-09-03T04:48:22;9.32;;;3.45;;
60869;SDS011;46710;43.680;4.132;2022-09-03T04:50:48;5.55;;;3.95;;
60869;SDS011;46710;43.680;4.132;2022-09-03T04:53:14;6.75;;;3.90;;
60869;SDS011;46710;43.680;4.132;2022-09-03T04:55:40;7.70;;;3.87;;
60869;SDS011;46710;43.680;4.132;2022-09-03T04:58:06;4.18;;;2.97;;
60869;SDS011;46710;43.680;4.132;2022-09-03T05:00:34;8.00;;;3.37;;
60869;SDS011;46710;43.680;4.132;2022-09-03T05:03:00;5.95;;;3.87;;
60869;SDS011;46710;43.680;4.132;2022-09-03T05:05:29;5.15;;;3.37;;
60869;SDS011;46710;43.680;4.132;2022-09-03T05:07:58;3.60;;;2.92;;
60869;SDS011;46710;43.680;4.132;2022-09-03T05:10:26;4.68;;;3.58;;
60869;SDS011;46710;43.680;4.132;2022-09-03T05:13:04;3.58;;;3.08;;
60869;SDS011;46710;43.680;4.132;2022-09-03T05:15:31;4.75;;;3.28;;
60869;SDS011;46710;43.680;4.132;2022-09-03T05:17:58;5.32;;;3.75;;
60869;SDS011;46710;43.680;4.132;2022-09-03T05:20:25;4.75;;;3.40;;
60869;SDS011;46710;43.680;4.132;2022-09-03T05:22:54;4.28;;;3.22;;
60869;SDS011;46710;43.680;4.132;2022-09-03T05:25:21;6.22;;;3.25;;
60869;SDS011;46710;43.680;4.132;2022-09-03T05:27:47;5.75;;;3.10;;
60869;SDS011;46710;43.680;4.132;2022-09-03T05:30:14;5.82;;;3.25;;
60869;SDS011;46710;43.680;4.132;2022-09-03T05:32:40;6.18;;;3.50;;
60869;SDS011;46710;43.680;4.132;2022-09-03T05:35:07;4.60;;;2.80;;
60869;SDS011;46710;43.680;4.132;2022-09-03T05:37:34;4.70;;;3.25;;
60869;SDS011;46710;43.680;4.132;2022-09-03T05:40:01;7.40;;;3.12;;
60869;SDS011;46710;43.680;4.132;2022-09-03T05:42:27;4.87;;;2.87;;
60869;SDS011;46710;43.680;4.132;2022-09-03T05:44:55;8.90;;;4.00;;
60869;SDS011;46710;43.680;4.132;2022-09-03T05:47:21;8.23;;;4.15;;
60869;SDS011;46710;43.680;4.132;2022-09-03T05:49:47;5.62;;;3.70;;
60869;SDS011;46710;43.680;4.132;2022-09-03T05:52:14;3.65;;;3.12;;
60869;SDS011;46710;43.680;4.132;2022-09-03T05:54:40;5.43;;;3.10;;
60869;SDS011;46710;43.680;4.132;2022-09-03T05:57:06;6.28;;;3.75;;
60869;SDS011;46710;43.680;4.132;2022-09-03T05:59:33;3.47;;;3.00;;
60869;SDS011;46710;43.680;4.132;2022-09-03T06:01:59;6.18;;;3.45;;
60869;SDS011;46710;43.680;4.132;2022-09-03T06:04:25;5.47;;;3.67;;
60869;SDS011;46710;43.680;4.132;2022-09-03T06:06:51;3.87;;;2.95;;
60869;SDS011;46710;43.680;4.132;2022-09-03T06:09:18;3.78;;;3.37;;
60869;SDS011;46710;43.680;4.132;2022-09-03T06:11:45;4.85;;;3.20;;
60869;SDS011;46710;43.680;4.132;2022-09-03T06:14:13;5.80;;;3.45;;
60869;SDS011;46710;43.680;4.132;2022-09-03T06:16:40;4.57;;;3.60;;
60869;SDS011;46710;43.680;4.132;2022-09-03T06:19:07;6.47;;;3.90;;
60869;SDS011;46710;43.680;4.132;2022-09-03T06:21:39;7.85;;;3.75;;
60869;SDS011;46710;43.680;4.132;2022-09-03T06:24:07;5.62;;;4.05;;
60869;SDS011;46710;43.680;4.132;2022-09-03T06:26:33;5.70;;;3.75;;
60869;SDS011;46710;43.680;4.132;2022-09-03T06:28:59;7.90;;;3.80;;
60869;SDS011;46710;43.680;4.132;2022-09-03T06:31:25;6.18;;;4.05;;
60869;SDS011;46710;43.680;4.132;2022-09-03T06:33:52;5.53;;;3.70;;
60869;SDS011;46710;43.680;4.132;2022-09-03T06:36:19;7.60;;;4.00;;
60869;SDS011;46710;43.680;4.132;2022-09-03T06:38:46;5.22;;;3.90;;
60869;SDS011;46710;43.680;4.132;2022-09-03T06:41:16;5.03;;;3.85;;
60869;SDS011;46710;43.680;4.132;2022-09-03T06:43:50;5.97;;;3.78;;
60869;SDS011;46710;43.680;4.132;2022-09-03T06:46:17;6.50;;;3.72;;
60869;SDS011;46710;43.680;4.132;2022-09-03T06:48:44;9.55;;;4.60;;
60869;SDS011;46710;43.680;4.132;2022-09-03T06:51:21;6.55;;;4.20;;
60869;SDS011;46710;43.680;4.132;2022-09-03T06:53:49;5.03;;;3.75;;
60869;SDS011;46710;43.680;4.132;2022-09-03T06:56:17;5.03;;;3.90;;
60869;SDS011;46710;43.680;4.132;2022-09-03T06:58:44;3.83;;;3.08;;
60869;SDS011;46710;43.680;4.132;2022-09-03T07:03:37;5.62;;;3.30;;
60869;SDS011;46710;43.680;4.132;2022-09-03T07:06:14;4.20;;;3.37;;
60869;SDS011;46710;43.680;4.132;2022-09-03T07:08:41;3.78;;;3.03;;
60869;SDS011;46710;43.680;4.132;2022-09-03T07:11:11;7.43;;;3.80;;
60869;SDS011;46710;43.680;4.132;2022-09-03T07:13:38;5.95;;;2.90;;
60869;SDS011;46710;43.680;4.132;2022-09-03T07:16:09;6.28;;;3.28;;
60869;SDS011;46710;43.680;4.132;2022-09-03T07:18:36;3.72;;;2.80;;
60869;SDS011;46710;43.680;4.132;2022-09-03T07:21:06;3.70;;;3.08;;
60869;SDS011;46710;43.680;4.132;2022-09-03T07:23:33;4.07;;;3.03;;
60869;SDS011;46710;43.680;4.132;2022-09-03T07:26:00;3.55;;;3.25;;
60869;SDS011;46710;43.680;4.132;2022-09-03T07:28:27;6.10;;;2.97;;
60869;SDS011;46710;43.680;4.132;2022-09-03T07:30:54;4.25;;;2.80;;
60869;SDS011;46710;43.680;4.132;2022-09-03T07:33:25;3.87;;;2.90;;
60869;SDS011;46710;43.680;4.132;2022-09-03T07:35:53;4.43;;;3.10;;
60869;SDS011;46710;43.680;4.132;2022-09-03T07:38:19;4.07;;;3.33;;
60869;SDS011;46710;43.680;4.132;2022-09-03T07:40:47;3.97;;;2.97;;
60869;SDS011;46710;43.680;4.132;2022-09-03T07:43:13;5.22;;;3.17;;
60869;SDS011;46710;43.680;4.132;2022-09-03T07:45:40;5.75;;;3.17;;
60869;SDS011;46710;43.680;4.132;2022-09-03T07:48:08;5.95;;;3.05;;
60869;SDS011;46710;43.680;4.132;2022-09-03T07:50:34;8.05;;;3.40;;
60869;SDS011;46710;43.680;4.132;2022-09-03T07:53:03;5.32;;;3.20;;
60869;SDS011;46710;43.680;4.132;2022-09-03T07:55:29;5.18;;;3.33;;
60869;SDS011;46710;43.680;4.132;2022-09-03T07:57:55;5.68;;;3.33;;
60869;SDS011;46710;43.680;4.132;2022-09-03T08:00:23;3.87;;;3.12;;
60869;SDS011;46710;43.680;4.132;2022-09-03T08:02:52;5.50;;;3.28;;
60869;SDS011;46710;43.680;4.132;2022-09-03T08:05:20;5.10;;;3.47;;
60869;SDS011;46710;43.680;4.132;2022-09-03T08:07:46;3.92;;;3.10;;
60869;SDS011;46710;43.680;4.132;2022-09-03T08:10:14;4.40;;;2.80;;
60869;SDS011;46710;43.680;4.132;2022-09-03T08:12:40;5.85;;;3.10;;
60869;SDS011;46710;43.680;4.132;2022-09-03T08:15:06;5.07;;;2.95;;
60869;SDS011;46710;43.680;4.132;2022-09-03T08:17:33;2.95;;;2.60;;
60869;SDS011;46710;43.680;4.132;2022-09-03T08:19:59;4.72;;;3.05;;
60869;SDS011;46710;43.680;4.132;2022-09-03T08:22:25;4.65;;;3.00;;
60869;SDS011;46710;43.680;4.132;2022-09-03T08:24:52;3.65;;;2.90;;
60869;SDS011;46710;43.680;4.132;2022-09-03T08:27:19;3.28;;;2.87;;
60869;SDS011;46710;43.680;4.132;2022-09-03T08:29:49;4.82;;;2.97;;
60869;SDS011;46710;43.680;4.132;2022-09-03T08:32:15;4.20;;;2.90;;
60869;SDS011;46710;43.680;4.132;2022-09-03T08:34:41;7.53;;;3.30;;
60869;SDS011;46710;43.680;4.132;2022-09-03T08:37:07;3.87;;;3.00;;
60869;SDS011;46710;43.680;4.132;2022-09-03T08:39:34;4.45;;;3.35;;
60869;SDS011;46710;43.680;4.132;2022-09-03T08:44:45;4.30;;;3.00;;
60869;SDS011;46710;43.680;4.132;2022-09-03T08:47:16;4.55;;;3.08;;
60869;SDS011;46710;43.680;4.132;2022-09-03T08:49:53;4.87;;;3.20;;
60869;SDS011;46710;43.680;4.132;2022-09-03T08:52:28;5.43;;;3.22;;
60869;SDS011;46710;43.680;4.132;2022-09-03T08:55:02;6.00;;;3.60;;
60869;SDS011;46710;43.680;4.132;2022-09-03T08:57:29;3.87;;;3.20;;
60869;SDS011;46710;43.680;4.132;2022-09-03T08:59:57;4.62;;;3.55;;
60869;SDS011;46710;43.680;4.132;2022-09-03T09:05:03;4.20;;;3.47;;
60869;SDS011;46710;43.680;4.132;2022-09-03T09:07:42;3.90;;;3.40;;
60869;SDS011;46710;43.680;4.132;2022-09-03T09:10:11;3.90;;;3.42;;
60869;SDS011;46710;43.680;4.132;2022-09-03T09:15:09;4.43;;;3.40;;
60869;SDS011;46710;43.680;4.132;2022-09-03T09:22:53;4.60;;;3.37;;
60869;SDS011;46710;43.680;4.132;2022-09-03T09:25:21;3.40;;;3.10;;
60869;SDS011;46710;43.680;4.132;2022-09-03T09:27:57;4.55;;;3.37;;
60869;SDS011;46710;43.680;4.132;2022-09-03T09:30:24;3.50;;;3.20;;
60869;SDS011;46710;43.680;4.132;2022-09-03T09:32:50;3.62;;;3.30;;
60869;SDS011;46710;43.680;4.132;2022-09-03T09:35:17;3.50;;;3.20;;
60869;SDS011;46710;43.680;4.132;2022-09-03T09:37:45;5.15;;;3.87;;
60869;SDS011;46710;43.680;4.132;2022-09-03T09:40:20;4.03;;;3.60;;
60869;SDS011;46710;43.680;4.132;2022-09-03T09:42:47;4.05;;;3.40;;
60869;SDS011;46710;43.680;4.132;2022-09-03T09:45:14;5.68;;;3.67;;
60869;SDS011;46710;43.680;4.132;2022-09-03T09:47:40;5.53;;;3.87;;
60869;SDS011;46710;43.680;4.132;2022-09-03T09:50:17;6.30;;;3.70;;
60869;SDS011;46710;43.680;4.132;2022-09-03T09:52:45;4.30;;;3.90;;
60869;SDS011;46710;43.680;4.132;2022-09-03T09:55:15;6.47;;;4.10;;
60869;SDS011;46710;43.680;4.132;2022-09-03T09:57:42;5.20;;;3.85;;
60869;SDS011;46710;43.680;4.132;2022-09-03T10:00:13;4.65;;;3.75;;
60869;SDS011;46710;43.680;4.132;2022-09-03T10:02:46;4.77;;;4.00;;
60869;SDS011;46710;43.680;4.132;2022-09-03T10:05:14;4.50;;;3.90;;
60869;SDS011;46710;43.680;4.132;2022-09-03T10:07:40;4.10;;;3.70;;
60869;SDS011;46710;43.680;4.132;2022-09-03T10:10:14;5.90;;;3.72;;
60869;SDS011;46710;43.680;4.132;2022-09-03T10:12:41;3.95;;;3.55;;
60869;SDS011;46710;43.680;4.132;2022-09-03T10:15:16;4.12;;;3.67;;
60869;SDS011;46710;43.680;4.132;2022-09-03T10:25:39;5.78;;;4.37;;
60869;SDS011;46710;43.680;4.132;2022-09-03T10:28:11;4.55;;;4.15;;
60869;SDS011;46710;43.680;4.132;2022-09-03T10:33:29;7.47;;;4.87;;
60869;SDS011;46710;43.680;4.132;2022-09-03T10:36:18;7.28;;;4.93;;
60869;SDS011;46710;43.680;4.132;2022-09-03T10:38:47;5.78;;;4.78;;
60869;SDS011;46710;43.680;4.132;2022-09-03T10:41:32;5.20;;;4.70;;
60869;SDS011;46710;43.680;4.132;2022-09-03T10:44:24;5.32;;;4.82;;
60869;SDS011;46710;43.680;4.132;2022-09-03T10:47:06;5.45;;;4.95;;
60869;SDS011;46710;43.680;4.132;2022-09-03T11:07:01;8.93;;;4.40;;
60869;SDS011;46710;43.680;4.132;2022-09-03T11:09:32;4.80;;;4.40;;
60869;SDS011;46710;43.680;4.132;2022-09-03T11:14:29;5.20;;;4.18;;
60869;SDS011;46710;43.680;4.132;2022-09-03T11:16:58;6.97;;;4.28;;
60869;SDS011;46710;43.680;4.132;2022-09-03T11:19:32;5.85;;;4.45;;
60869;SDS011;46710;43.680;4.132;2022-09-03T11:21:59;5.93;;;4.90;;
60869;SDS011;46710;43.680;4.132;2022-09-03T11:24:26;5.60;;;4.50;;
60869;SDS011;46710;43.680;4.132;2022-09-03T11:30:21;5.12;;;4.47;;
60869;SDS011;46710;43.680;4.132;2022-09-03T11:35:24;5.30;;;4.22;;
60869;SDS011;46710;43.680;4.132;2022-09-03T11:37:57;5.47;;;4.28;;
60869;SDS011;46710;43.680;4.132;2022-09-03T11:40:31;5.20;;;4.25;;
60869;SDS011;46710;43.680;4.132;2022-09-03T11:43:05;6.03;;;4.80;;
60869;SDS011;46710;43.680;4.132;2022-09-03T11:47:58;6.68;;;4.68;;
60869;SDS011;46710;43.680;4.132;2022-09-03T11:50:28;5.15;;;4.22;;
60869;SDS011;46710;43.680;4.132;2022-09-03T11:53:08;7.03;;;4.80;;
60869;SDS011;46710;43.680;4.132;2022-09-03T11:58:30;5.72;;;4.05;;
60869;SDS011;46710;43.680;4.132;2022-09-03T12:00:59;7.70;;;5.10;;
60869;SDS011;46710;43.680;4.132;2022-09-03T12:03:27;5.80;;;4.50;;
60869;SDS011;46710;43.680;4.132;2022-09-03T12:06:20;8.77;;;5.53;;
60869;SDS011;46710;43.680;4.132;2022-09-03T12:14:04;4.25;;;3.85;;
60869;SDS011;46710;43.680;4.132;2022-09-03T12:19:21;8.60;;;6.57;;
60869;SDS011;46710;43.680;4.132;2022-09-03T12:21:50;8.18;;;6.25;;
60869;SDS011;46710;43.680;4.132;2022-09-03T12:24:17;6.45;;;5.05;;
60869;SDS011;46710;43.680;4.132;2022-09-03T12:26:44;6.70;;;4.25;;
60869;SDS011;46710;43.680;4.132;2022-09-03T12:29:21;6.68;;;4.47;;
60869;SDS011;46710;43.680;4.132;2022-09-03T12:31:48;6.25;;;4.62;;
60869;SDS011;46710;43.680;4.132;2022-09-03T12:34:16;10.98;;;5.97;;
60869;SDS011;46710;43.680;4.132;2022-09-03T12:36:43;7.32;;;5.03;;
60869;SDS011;46710;43.680;4.132;2022-09-03T12:39:13;6.37;;;4.60;;
60869;SDS011;46710;43.680;4.132;2022-09-03T12:44:26;7.40;;;3.22;;
60869;SDS011;46710;43.680;4.132;2022-09-03T12:47:04;4.82;;;3.30;;
60869;SDS011;46710;43.680;4.132;2022-09-03T12:49:37;4.45;;;3.37;;
60869;SDS011;46710;43.680;4.132;2022-09-03T12:52:07;4.80;;;3.20;;
60869;SDS011;46710;43.680;4.132;2022-09-03T12:54:36;7.93;;;3.60;;
60869;SDS011;46710;43.680;4.132;2022-09-03T12:57:03;8.23;;;3.87;;
60869;SDS011;46710;43.680;4.132;2022-09-03T12:59:31;6.43;;;2.90;;
60869;SDS011;46710;43.680;4.132;2022-09-03T13:02:03;4.28;;;2.95;;
60869;SDS011;46710;43.680;4.132;2022-09-03T13:04:36;4.80;;;3.33;;
60869;SDS011;46710;43.680;4.132;2022-09-03T13:09:34;5.95;;;3.33;;
60869;SDS011;46710;43.680;4.132;2022-09-03T13:12:01;4.60;;;3.40;;
60869;SDS011;46710;43.680;4.132;2022-09-03T13:14:40;4.53;;;3.10;;
60869;SDS011;46710;43.680;4.132;2022-09-03T13:22:18;7.75;;;5.30;;
60869;SDS011;46710;43.680;4.132;2022-09-03T13:30:03;7.22;;;4.72;;
60869;SDS011;46710;43.680;4.132;2022-09-03T13:32:33;8.40;;;4.47;;
60869;SDS011;46710;43.680;4.132;2022-09-03T13:37:54;8.45;;;4.15;;
60869;SDS011;46710;43.680;4.132;2022-09-03T13:43:07;4.00;;;3.08;;
60869;SDS011;46710;43.680;4.132;2022-09-03T13:46:24;5.55;;;3.20;;
60869;SDS011;46710;43.680;4.132;2022-09-03T13:48:35;4.60;;;3.10;;
60869;SDS011;46710;43.680;4.132;2022-09-03T13:51:30;7.12;;;3.55;;
60869;SDS011;46710;43.680;4.132;2022-09-03T13:54:03;5.28;;;3.30;;
60869;SDS011;46710;43.680;4.132;2022-09-03T13:59:16;4.15;;;3.28;;
60869;SDS011;46710;43.680;4.132;2022-09-03T14:01:49;4.13;;;2.90;;
60869;SDS011;46710;43.680;4.132;2022-09-03T14:04:21;3.85;;;3.45;;
60869;SDS011;46710;43.680;4.132;2022-09-03T14:12:24;7.60;;;3.17;;
60869;SDS011;46710;43.680;4.132;2022-09-03T14:14:57;4.60;;;2.87;;
60869;SDS011;46710;43.680;4.132;2022-09-03T14:17:48;6.00;;;2.90;;
60869;SDS011;46710;43.680;4.132;2022-09-03T14:20:17;5.95;;;2.75;;
60869;SDS011;46710;43.680;4.132;2022-09-03T14:25:13;4.93;;;2.72;;
60869;SDS011;46710;43.680;4.132;2022-09-03T14:27:40;5.22;;;2.45;;
60869;SDS011;46710;43.680;4.132;2022-09-03T14:30:16;4.32;;;2.62;;
60869;SDS011;46710;43.680;4.132;2022-09-03T14:35:30;5.22;;;2.20;;
60869;SDS011;46710;43.680;4.132;2022-09-03T14:38:03;7.68;;;2.30;;
60869;SDS011;46710;43.680;4.132;2022-09-03T14:40:45;5.10;;;2.28;;
60869;SDS011;46710;43.680;4.132;2022-09-03T14:43:14;4.78;;;2.35;;
60869;SDS011;46710;43.680;4.132;2022-09-03T14:48:31;5.28;;;3.17;;
60869;SDS011;46710;43.680;4.132;2022-09-03T15:01:35;4.15;;;2.30;;
60869;SDS011;46710;43.680;4.132;2022-09-03T15:07:15;4.10;;;2.12;;
60869;SDS011;46710;43.680;4.132;2022-09-03T15:09:51;6.35;;;2.70;;
60869;SDS011;46710;43.680;4.132;2022-09-03T15:14:55;4.47;;;2.42;;
60869;SDS011;46710;43.680;4.132;2022-09-03T15:27:46;4.30;;;2.03;;
60869;SDS011;46710;43.680;4.132;2022-09-03T15:30:17;5.50;;;2.10;;
60869;SDS011;46710;43.680;4.132;2022-09-03T15:33:00;6.55;;;2.08;;
60869;SDS011;46710;43.680;4.132;2022-09-03T15:38:12;5.22;;;2.10;;
60869;SDS011;46710;43.680;4.132;2022-09-03T15:43:24;8.25;;;2.70;;
60869;SDS011;46710;43.680;4.132;2022-09-03T15:46:02;6.55;;;2.12;;
60869;SDS011;46710;43.680;4.132;2022-09-03T15:58:41;5.20;;;2.03;;
60869;SDS011;46710;43.680;4.132;2022-09-03T16:09:02;7.57;;;2.90;;
60869;SDS011;46710;43.680;4.132;2022-09-03T16:16:27;4.25;;;2.47;;
60869;SDS011;46710;43.680;4.132;2022-09-03T16:19:41;7.10;;;2.75;;
60869;SDS011;46710;43.680;4.132;2022-09-03T16:26:40;5.97;;;2.42;;
60869;SDS011;46710;43.680;4.132;2022-09-03T16:29:10;4.00;;;1.90;;
60869;SDS011;46710;43.680;4.132;2022-09-03T16:39:45;5.75;;;2.45;;
60869;SDS011;46710;43.680;4.132;2022-09-03T17:01:07;4.07;;;2.75;;
60869;SDS011;46710;43.680;4.132;2022-09-03T17:09:34;7.30;;;4.18;;
60869;SDS011;46710;43.680;4.132;2022-09-03T17:14:51;5.82;;;2.80;;
60869;SDS011;46710;43.680;4.132;2022-09-03T17:20:00;7.57;;;2.97;;
60869;SDS011;46710;43.680;4.132;2022-09-03T17:24:58;4.03;;;2.08;;
60869;SDS011;46710;43.680;4.132;2022-09-03T17:27:40;6.03;;;2.22;;
60869;SDS011;46710;43.680;4.132;2022-09-03T17:35:45;3.85;;;2.30;;
60869;SDS011;46710;43.680;4.132;2022-09-03T17:38:53;8.57;;;3.22;;
60869;SDS011;46710;43.680;4.132;2022-09-03T17:43:48;4.28;;;2.33;;
60869;SDS011;46710;43.680;4.132;2022-09-03T17:49:00;6.28;;;3.40;;
60869;SDS011;46710;43.680;4.132;2022-09-03T17:51:34;6.70;;;2.78;;
60869;SDS011;46710;43.680;4.132;2022-09-03T17:54:04;4.57;;;2.65;;
60869;SDS011;46710;43.680;4.132;2022-09-03T17:59:28;4.18;;;2.80;;
60869;SDS011;46710;43.680;4.132;2022-09-03T18:07:08;5.15;;;2.50;;
60869;SDS011;46710;43.680;4.132;2022-09-03T18:09:39;4.40;;;2.53;;
60869;SDS011;46710;43.680;4.132;2022-09-03T18:14:34;8.25;;;2.60;;
60869;SDS011;46710;43.680;4.132;2022-09-03T18:17:08;6.40;;;2.47;;
60869;SDS011;46710;43.680;4.132;2022-09-03T18:22:21;7.05;;;2.97;;
60869;SDS011;46710;43.680;4.132;2022-09-03T18:25:09;5.65;;;2.72;;
60869;SDS011;46710;43.680;4.132;2022-09-03T18:27:57;7.97;;;3.08;;
60869;SDS011;46710;43.680;4.132;2022-09-03T18:30:43;5.95;;;3.03;;
60869;SDS011;46710;43.680;4.132;2022-09-03T18:33:28;7.57;;;3.10;;
60869;SDS011;46710;43.680;4.132;2022-09-03T18:36:13;8.05;;;4.05;;
60869;SDS011;46710;43.680;4.132;2022-09-03T18:39:13;6.57;;;3.45;;
60869;SDS011;46710;43.680;4.132;2022-09-03T18:50:52;9.88;;;3.92;;
60869;SDS011;46710;43.680;4.132;2022-09-03T18:56:50;6.03;;;3.35;;
60869;SDS011;46710;43.680;4.132;2022-09-03T18:59:48;7.27;;;3.17;;
60869;SDS011;46710;43.680;4.132;2022-09-03T19:05:33;8.10;;;3.37;;
60869;SDS011;46710;43.680;4.132;2022-09-03T19:08:24;11.70;;;5.15;;
60869;SDS011;46710;43.680;4.132;2022-09-03T19:13:58;8.85;;;5.05;;
60869;SDS011;46710;43.680;4.132;2022-09-03T19:25:18;11.93;;;7.18;;
60869;SDS011;46710;43.680;4.132;2022-09-03T19:31:03;10.60;;;4.95;;
60869;SDS011;46710;43.680;4.132;2022-09-03T19:51:55;7.85;;;3.58;;
60869;SDS011;46710;43.680;4.132;2022-09-03T19:54:41;8.38;;;4.72;;
60869;SDS011;46710;43.680;4.132;2022-09-03T19:57:26;11.80;;;6.10;;
60869;SDS011;46710;43.680;4.132;2022-09-03T20:00:13;10.82;;;5.65;;
60869;SDS011;46710;43.680;4.132;2022-09-03T20:02:58;10.65;;;5.43;;
60869;SDS011;46710;43.680;4.132;2022-09-03T20:05:43;11.15;;;5.60;;
60869;SDS011;46710;43.680;4.132;2022-09-03T20:08:28;9.05;;;5.50;;
60869;SDS011;46710;43.680;4.132;2022-09-03T20:11:18;8.90;;;4.90;;
60869;SDS011;46710;43.680;4.132;2022-09-03T20:13:44;9.63;;;4.55;;
60869;SDS011;46710;43.680;4.132;2022-09-03T20:18:58;8.98;;;4.20;;
60869;SDS011;46710;43.680;4.132;2022-09-03T20:24:07;6.75;;;4.20;;
60869;SDS011;46710;43.680;4.132;2022-09-03T20:36:56;14.75;;;4.85;;
60869;SDS011;46710;43.680;4.132;2022-09-03T20:47:25;23.23;;;12.70;;
60869;SDS011;46710;43.680;4.132;2022-09-03T20:50:03;16.48;;;9.50;;
60869;SDS011;46710;43.680;4.132;2022-09-03T20:53:21;14.07;;;8.23;;
60869;SDS011;46710;43.680;4.132;2022-09-03T20:55:42;14.07;;;7.95;;
60869;SDS011;46710;43.680;4.132;2022-09-03T20:58:21;11.60;;;6.85;;
60869;SDS011;46710;43.680;4.132;2022-09-03T21:03:37;10.80;;;5.68;;
60869;SDS011;46710;43.680;4.132;2022-09-03T21:14:12;8.07;;;4.65;;
60869;SDS011;46710;43.680;4.132;2022-09-03T21:17:07;7.57;;;3.80;;
60869;SDS011;46710;43.680;4.132;2022-09-03T21:19:45;9.95;;;4.28;;
60869;SDS011;46710;43.680;4.132;2022-09-03T21:27:20;8.10;;;4.05;;
60869;SDS011;46710;43.680;4.132;2022-09-03T21:32:19;9.18;;;4.05;;
60869;SDS011;46710;43.680;4.132;2022-09-03T21:34:54;7.37;;;4.43;;